• Join FlightAware (Why Join?)
  • Login
  • US Flag 
09:04AM EDT


 

Airport Tracker/Info


-or-


 

Live Flight TrackerFlight Track Log ✈ CSN369 ✈ 23-Apr-2012 ✈ ZSPD / PVG - RKSI / ICN

Flight Track Log - Related Links

Times and Time Zones

All times are in EDT time to prevent confusion due to time zone crossing. See the CSN369 flight status page for this flight to view local times or setup timezone preferences in your user account.

Time Position Orientation Groundspeed Altitude Reporting Facility
EDT Latitude Longitude Course Direction KTS MPH feet Rate Location/Type
04:49AM 33.8623 123.6938 31° Northeast  Level Estimated
04:50AM 33.9369 123.7479 31° Northeast  Level Estimated
04:51AM 34.0114 123.8022 31° Northeast  Level Estimated
04:52AM 34.0860 123.8565 31° Northeast  Level Estimated
04:53AM 34.1605 123.9109 31° Northeast  Level Estimated
04:54AM 34.2350 123.9654 31° Northeast  Level Estimated
04:55AM 34.3095 124.0200 31° Northeast  Level Estimated
04:56AM 34.3840 124.0747 31° Northeast  Level Estimated
04:57AM 34.4584 124.1295 31° Northeast  Level Estimated
04:58AM 34.5328 124.1844 31° Northeast  Level Estimated
04:59AM 34.6072 124.2394 31° Northeast  Level Estimated
05:00AM 34.6815 124.2945 31° Northeast  Level Estimated
05:01AM 34.7559 124.3497 31° Northeast  Level Estimated
05:02AM 34.8302 124.4050 31° Northeast  Level Estimated
05:03AM 34.9045 124.4604 31° Northeast  Level Estimated
05:04AM 34.9787 124.5159 32° Northeast  Level Estimated
05:05AM 35.0530 124.5715 32° Northeast  Level Estimated
05:06AM 35.1272 124.6272 32° Northeast  Level Estimated
05:07AM 35.2014 124.6830 32° Northeast  Level Estimated
05:08AM 35.2755 124.7389 32° Northeast  Level Estimated
05:09AM 35.3496 124.7949 32° Northeast  Level Estimated
05:10AM 35.4238 124.8510 32° Northeast  Level Estimated
05:11AM 35.4978 124.9072 32° Northeast  Level Estimated
05:12AM 35.5719 124.9635 32° Northeast  Level Estimated
05:13AM 35.6459 125.0200 32° Northeast  Level Estimated
05:14AM 35.7199 125.0765 32° Northeast  Level Estimated
05:15AM 35.7939 125.1331 32° Northeast  Level Estimated
05:16AM 35.8678 125.1898 32° Northeast  Level Estimated
05:17AM 35.9417 125.2467 32° Northeast  Level Estimated
05:18AM 36.0156 125.3036 32° Northeast  Level Estimated
05:19AM 36.0895 125.3607 32° Northeast  Level Estimated
05:20AM 36.1633 125.4178 32° Northeast  Level Estimated
05:21AM 36.2372 125.4751 32° Northeast  Level Estimated
05:22AM 36.3110 125.5325 32° Northeast  Level Estimated
05:23AM 36.3847 125.5900 32° Northeast  Level Estimated
05:24AM 36.4584 125.6475 32° Northeast  Level Estimated
05:25AM 36.5321 125.7052 32° Northeast  Level Estimated
05:26AM 36.6058 125.7630 32° Northeast  Level Estimated
05:27AM 36.6795 125.8210 32° Northeast  Level Estimated
05:28AM 36.7531 125.8790 32° Northeast  Level Estimated
05:29AM 36.8267 125.9371 32° Northeast  Level Estimated
05:30AM 36.9002 125.9954 32° Northeast  Level Estimated
05:31AM 36.9738 126.0538 32° Northeast  Level Estimated
05:32AM 37.0473 126.1123 32° Northeast  Level Estimated
05:33AM 37.1207 126.1709 32° Northeast  Level Estimated
05:34AM 37.1942 126.2296 33° Northeast  Level Estimated
05:35AM 37.2676 126.2884 33° Northeast  Level Estimated
05:36AM 37.3410 126.3473 33° Northeast  Level Estimated
05:37AM 37.4144 126.4064 33° Northeast  Level Estimated
05:38AM 37.4877 126.4656 213° Southwest  Level Estimated
05:39AM 37.4144 126.4064 33° Northeast  Level Estimated
05:40AM 37.4877 126.4656 213° Southwest  Level Estimated
05:41AM 37.4144 126.4064 33° Northeast  Level Estimated
05:42AM 37.4877 126.4656 213° Southwest  Level Estimated
05:43AM 37.4144 126.4064 33° Northeast  Level Estimated
05:44AM 37.4877 126.4656 213° Southwest  Level Estimated
05:45AM 37.4144 126.4064 33° Northeast  Level Estimated
05:46AM 37.4877 126.4656 213° Southwest  Level Estimated
05:47AM 37.4144 126.4064 33° Northeast  Level Estimated
05:48AM 37.4877 126.4656 213° Southwest  Level Estimated
05:49AM 37.4144 126.4064 33° Northeast  Level Estimated
05:50AM 37.4877 126.4656 213° Southwest  Level Estimated
05:51AM 37.4144 126.4064 33° Northeast  Level Estimated
05:52AM 37.4877 126.4656 213° Southwest  Level Estimated
05:53AM 37.4144 126.4064 213° Southwest  Level Estimated